Time;durP1;ratioP1;P1;durP2;ratioP2;P2;SDS_P1;SDS_P2;PMS_P1;PMS_P2;Temp;Humidity;BMP_temperature;BMP_pressure;BME280_temperature;BME280_humidity;BME280_pressure;Samples;Min_cycle;Max_cycle;Signal;HPM_P1;HPM_P2
2021/01/29 00:00:58;;;;;;;9.20;5.67;;;-2.10;88.30;;;;;;4977893;28;20656;-81
2021/01/29 00:03:28;;;;;;;10.50;5.33;;;-2.20;88.90;;;;;;4979712;28;20212;-83
2021/01/29 00:06:02;;;;;;;8.90;6.27;;;-2.10;88.90;;;;;;4977138;28;20263;-82
2021/01/29 00:08:33;;;;;;;11.40;6.30;;;-2.20;88.60;;;;;;4982574;28;20227;-82
2021/01/29 00:11:02;;;;;;;10.90;6.23;;;-2.10;89.00;;;;;;4968271;28;20687;-81
2021/01/29 00:13:30;;;;;;;12.07;6.30;;;-2.10;89.30;;;;;;4982509;28;20211;-81
2021/01/29 00:15:57;;;;;;;9.57;6.10;;;-2.10;88.90;;;;;;4987574;28;20525;-79
2021/01/29 00:18:25;;;;;;;16.20;8.93;;;-2.20;89.50;;;;;;4982049;28;20243;-79
2021/01/29 00:20:54;;;;;;;13.67;8.37;;;-2.20;89.60;;;;;;4975881;28;20283;-78
2021/01/29 00:23:23;;;;;;;14.30;8.43;;;-2.20;89.90;;;;;;4988173;28;20207;-82
2021/01/29 00:25:54;;;;;;;15.77;7.93;;;-2.20;90.00;;;;;;4969907;28;20494;-81
2021/01/29 00:28:24;;;;;;;11.73;7.80;;;-2.10;90.00;;;;;;4984428;28;20432;-80
2021/01/29 00:30:54;;;;;;;16.00;8.57;;;-2.30;90.20;;;;;;4976014;28;20211;-82
2021/01/29 00:33:24;;;;;;;17.27;8.77;;;-2.30;90.40;;;;;;4976543;28;20530;-80
2021/01/29 00:35:52;;;;;;;15.10;9.33;;;-2.30;90.40;;;;;;4995579;28;20196;-81
2021/01/29 00:38:21;;;;;;;17.63;9.00;;;-2.20;90.40;;;;;;4973939;28;20321;-82
2021/01/29 00:40:48;;;;;;;18.03;9.23;;;-2.20;90.50;;;;;;4973660;28;20395;-79
2021/01/29 00:43:17;;;;;;;15.77;8.67;;;-2.30;90.30;;;;;;4977023;28;20215;-81
2021/01/29 00:45:46;;;;;;;16.50;9.30;;;-2.30;90.30;;;;;;4974910;28;20200;-81
2021/01/29 00:48:13;;;;;;;21.13;9.87;;;-2.30;90.50;;;;;;4980685;28;20255;-80
2021/01/29 00:50:41;;;;;;;16.67;10.13;;;-2.40;90.60;;;;;;4964572;28;20226;-81
2021/01/29 00:53:10;;;;;;;14.53;8.90;;;-2.30;90.60;;;;;;4973356;28;20332;-81
2021/01/29 00:55:38;;;;;;;12.70;8.50;;;-2.30;90.60;;;;;;4984188;28;20204;-80
2021/01/29 00:58:06;;;;;;;16.77;9.33;;;-2.40;90.40;;;;;;4976209;28;20228;-80
2021/01/29 01:00:34;;;;;;;16.90;9.53;;;-2.40;90.50;;;;;;4976186;28;20204;-80
2021/01/29 01:03:02;;;;;;;19.70;8.97;;;-2.50;90.60;;;;;;4985876;28;20382;-80
2021/01/29 01:05:30;;;;;;;14.30;9.57;;;-2.60;90.60;;;;;;4997442;28;20853;-80
2021/01/29 01:07:58;;;;;;;16.10;9.30;;;-2.70;91.00;;;;;;4993011;28;20280;-81
2021/01/29 01:10:27;;;;;;;13.27;8.63;;;-2.70;91.10;;;;;;4980686;28;20667;-81
2021/01/29 01:12:55;;;;;;;15.57;9.07;;;-2.60;91.20;;;;;;4968977;28;20200;-81
2021/01/29 01:15:25;;;;;;;16.33;8.93;;;-2.60;91.10;;;;;;4981430;28;20482;-79
2021/01/29 01:17:58;;;;;;;13.90;8.80;;;-2.60;91.10;;;;;;4972212;28;20223;-81
2021/01/29 01:20:28;;;;;;;15.63;8.03;;;-2.60;91.10;;;;;;4982142;28;20415;-79
2021/01/29 01:22:57;;;;;;;15.63;8.60;;;-2.50;91.30;;;;;;4977990;28;20428;-82
2021/01/29 01:25:25;;;;;;;16.47;8.77;;;-2.40;91.20;;;;;;4974008;28;20205;-80
2021/01/29 01:27:55;;;;;;;17.33;8.00;;;-2.20;91.10;;;;;;4978680;28;20489;-80
2021/01/29 01:30:25;;;;;;;15.83;8.87;;;-2.10;91.00;;;;;;4972109;28;20583;-79
2021/01/29 01:32:53;;;;;;;12.33;8.27;;;-2.00;90.80;;;;;;4973815;28;20200;-80
2021/01/29 01:35:23;;;;;;;14.30;8.10;;;-1.80;90.60;;;;;;4961505;28;20224;-80
2021/01/29 01:37:51;;;;;;;12.60;7.63;;;-1.90;90.40;;;;;;4966451;28;20693;-80
2021/01/29 01:40:22;;;;;;;12.67;8.43;;;-1.80;90.20;;;;;;4981616;28;20205;-78
2021/01/29 01:42:50;;;;;;;13.50;8.13;;;-1.80;90.20;;;;;;4973541;28;20657;-81
2021/01/29 01:45:59;;;;;;;11.80;8.10;;;-1.70;90.00;;;;;;4978959;28;20203;-80
2021/01/29 01:48:33;;;;;;;12.90;8.13;;;-1.60;89.90;;;;;;4975801;28;20316;-80
2021/01/29 01:51:03;;;;;;;15.77;8.17;;;-1.60;89.50;;;;;;4965297;28;20201;-81
2021/01/29 01:53:35;;;;;;;14.37;8.40;;;-1.60;89.70;;;;;;4979697;28;20204;-81
2021/01/29 01:56:10;;;;;;;11.40;7.83;;;-1.50;89.50;;;;;;4972322;28;20291;-80
2021/01/29 01:58:38;;;;;;;12.77;8.33;;;-1.50;89.70;;;;;;4982812;28;20191;-81
2021/01/29 02:01:06;;;;;;;12.50;8.30;;;-1.50;89.50;;;;;;4974659;28;20204;-81
2021/01/29 02:03:34;;;;;;;13.17;8.13;;;-1.50;89.30;;;;;;4977930;28;20593;-79
2021/01/29 02:06:05;;;;;;;15.90;8.47;;;-1.40;89.30;;;;;;4981137;28;20202;-80
2021/01/29 02:08:37;;;;;;;15.67;8.00;;;-1.40;89.30;;;;;;4974269;28;20222;-80
2021/01/29 02:11:06;;;;;;;15.90;8.27;;;-1.40;88.80;;;;;;4972941;28;20227;-80
2021/01/29 02:13:33;;;;;;;13.17;8.53;;;-1.30;88.90;;;;;;4977934;28;20258;-81
2021/01/29 02:16:12;;;;;;;13.77;7.80;;;-1.30;88.90;;;;;;4963670;28;20590;-81
2021/01/29 02:19:02;;;;;;;15.10;8.60;;;-1.30;88.90;;;;;;4973766;28;20211;-79
2021/01/29 02:22:12;;;;;;;13.47;7.27;;;-1.30;89.10;;;;;;4957095;28;20233;-80
2021/01/29 02:25:19;;;;;;;14.87;8.30;;;-1.30;89.20;;;;;;4944584;28;20212;-82
2021/01/29 02:27:52;;;;;;;14.47;7.87;;;-1.30;88.60;;;;;;4923097;28;20225;-81
2021/01/29 02:30:55;;;;;;;15.47;8.30;;;-1.30;88.60;;;;;;4983525;28;20200;-82
2021/01/29 02:33:54;;;;;;;10.10;7.27;;;-1.20;88.50;;;;;;4949211;28;20283;-81
2021/01/29 02:36:59;;;;;;;14.63;8.37;;;-1.20;89.00;;;;;;4995181;28;20279;-79
2021/01/29 02:39:46;;;;;;;13.83;7.60;;;-1.20;88.70;;;;;;4973522;28;20281;-79
2021/01/29 02:42:29;;;;;;;13.27;7.70;;;-1.20;88.60;;;;;;4979319;28;20242;-81
2021/01/29 02:45:06;;;;;;;14.73;7.67;;;-1.20;88.70;;;;;;4967331;28;20204;-80
2021/01/29 02:47:43;;;;;;;11.57;6.63;;;-1.20;88.40;;;;;;4973351;28;20196;-81
2021/01/29 02:50:30;;;;;;;12.67;7.47;;;-1.10;88.60;;;;;;4989676;28;20224;-79
2021/01/29 02:53:03;;;;;;;11.43;7.57;;;-1.10;88.50;;;;;;4988256;28;20687;-80
2021/01/29 02:55:37;;;;;;;13.47;7.53;;;-1.10;88.90;;;;;;4998176;28;20365;-78
2021/01/29 02:58:13;;;;;;;12.87;8.10;;;-1.10;89.30;;;;;;4993948;28;20288;-83
2021/01/29 03:00:48;;;;;;;13.60;7.93;;;-1.10;88.50;;;;;;4990849;28;20959;-82
2021/01/29 03:03:21;;;;;;;12.23;7.47;;;-1.10;89.00;;;;;;4995552;28;20257;-80
2021/01/29 03:05:54;;;;;;;13.00;7.33;;;-1.10;89.00;;;;;;4977625;28;20474;-81
2021/01/29 03:08:25;;;;;;;14.40;8.03;;;-1.10;89.20;;;;;;4992190;28;20291;-79
2021/01/29 03:11:02;;;;;;;11.97;7.03;;;-1.10;88.90;;;;;;4999248;28;20200;-81
2021/01/29 03:13:39;;;;;;;14.17;7.17;;;-1.00;89.30;;;;;;5001782;28;20252;-79
2021/01/29 03:16:15;;;;;;;10.70;7.30;;;-1.10;89.10;;;;;;4984724;28;20303;-83
2021/01/29 03:18:53;;;;;;;12.00;7.03;;;-1.10;88.60;;;;;;4960393;28;20264;-81
2021/01/29 03:21:28;;;;;;;11.07;7.53;;;-1.10;88.70;;;;;;4988054;28;20311;-82
2021/01/29 03:23:58;;;;;;;10.60;7.20;;;-1.10;88.80;;;;;;4972418;28;20718;-78
2021/01/29 03:26:31;;;;;;;11.33;7.67;;;-1.10;88.70;;;;;;4992344;28;20206;-82
2021/01/29 03:29:04;;;;;;;13.40;7.77;;;-1.10;88.80;;;;;;4989703;28;20308;-81
2021/01/29 03:31:33;;;;;;;11.20;7.20;;;-1.10;88.70;;;;;;4988611;28;20632;-80
2021/01/29 03:34:06;;;;;;;12.67;7.77;;;-1.10;88.80;;;;;;4998088;28;20465;-81
2021/01/29 03:36:42;;;;;;;14.97;7.77;;;-1.10;89.00;;;;;;4999286;28;20482;-81
2021/01/29 03:39:14;;;;;;;11.83;7.30;;;-1.10;89.30;;;;;;4988761;28;20436;-81
2021/01/29 03:41:46;;;;;;;11.53;7.40;;;-1.10;89.50;;;;;;4991115;28;20200;-81
2021/01/29 03:44:20;;;;;;;11.50;7.53;;;-1.10;89.40;;;;;;4979103;28;20208;-80
2021/01/29 03:46:55;;;;;;;13.77;7.60;;;-1.10;89.70;;;;;;4973949;28;20282;-83
2021/01/29 03:49:34;;;;;;;13.53;8.07;;;-1.10;89.70;;;;;;4970524;28;20237;-81
2021/01/29 03:52:11;;;;;;;12.57;7.60;;;-1.10;89.80;;;;;;4970530;28;20479;-82
2021/01/29 03:54:49;;;;;;;10.83;7.87;;;-1.00;90.00;;;;;;4979938;28;20196;-79
2021/01/29 03:57:24;;;;;;;12.13;7.70;;;-1.10;89.70;;;;;;4983665;28;20336;-80
2021/01/29 04:00:09;;;;;;;11.80;7.40;;;-1.00;90.00;;;;;;4996432;28;20192;-80
2021/01/29 04:02:52;;;;;;;14.43;8.13;;;-1.00;90.00;;;;;;4987519;28;20228;-80
2021/01/29 04:05:23;;;;;;;12.57;7.60;;;-1.00;90.00;;;;;;4982350;28;20204;-82
2021/01/29 04:07:54;;;;;;;10.23;7.30;;;-1.00;90.10;;;;;;4984409;28;20219;-80
2021/01/29 04:10:30;;;;;;;10.73;6.97;;;-1.00;90.00;;;;;;4994429;28;20305;-81
2021/01/29 04:13:07;;;;;;;11.87;7.23;;;-1.00;90.00;;;;;;4986839;28;20224;-81
2021/01/29 04:15:40;;;;;;;12.13;7.67;;;-1.00;90.10;;;;;;4983618;28;20276;-83
2021/01/29 04:18:16;;;;;;;10.27;7.50;;;-0.80;90.00;;;;;;4980555;28;20718;-81
2021/01/29 04:20:47;;;;;;;13.53;7.77;;;-0.90;89.50;;;;;;4972105;28;20627;-81
2021/01/29 04:23:20;;;;;;;13.53;8.30;;;-0.90;90.00;;;;;;4980075;28;20228;-80
2021/01/29 04:25:56;;;;;;;12.23;7.57;;;-0.90;90.20;;;;;;4974493;28;20192;-80
2021/01/29 04:28:26;;;;;;;12.13;7.97;;;-0.90;90.20;;;;;;4962107;28;20334;-79
2021/01/29 04:30:58;;;;;;;9.13;7.00;;;-0.90;90.10;;;;;;4979383;28;20196;-79
2021/01/29 04:33:33;;;;;;;13.20;7.97;;;-0.90;89.90;;;;;;4951180;28;20227;-80
2021/01/29 04:36:03;;;;;;;13.17;7.63;;;-0.90;90.10;;;;;;4976275;28;20202;-81
2021/01/29 04:38:40;;;;;;;10.50;7.60;;;-0.90;90.20;;;;;;4973261;28;20286;-82
2021/01/29 04:41:28;;;;;;;12.83;7.80;;;-0.90;90.30;;;;;;4966670;28;20960;-81
2021/01/29 04:44:12;;;;;;;11.43;8.10;;;-0.90;90.00;;;;;;4967552;28;20327;-81
2021/01/29 04:46:56;;;;;;;12.43;7.57;;;-0.90;90.10;;;;;;4972195;28;20253;-80
2021/01/29 04:49:40;;;;;;;10.87;7.23;;;-0.90;90.20;;;;;;4977207;28;20223;-82
2021/01/29 04:52:41;;;;;;;10.23;7.47;;;-0.90;90.20;;;;;;4969299;28;20201;-79
2021/01/29 04:55:40;;;;;;;11.97;7.10;;;-0.90;90.20;;;;;;4976129;28;20750;-80
2021/01/29 04:58:14;;;;;;;10.87;7.23;;;-0.80;90.10;;;;;;4972665;28;20303;-81
2021/01/29 05:01:41;;;;;;;11.10;7.73;;;-0.80;90.00;;;;;;4968733;28;20712;-82
2021/01/29 05:04:57;;;;;;;12.60;7.70;;;-0.80;90.20;;;;;;4906595;29;20820;-81
2021/01/29 05:08:01;;;;;;;10.07;7.50;;;-0.90;90.20;;;;;;4896781;29;20215;-78
2021/01/29 05:11:00;;;;;;;11.03;7.67;;;-0.90;90.30;;;;;;4976371;28;20326;-81
2021/01/29 05:13:59;;;;;;;11.10;7.37;;;-0.80;90.40;;;;;;4961300;28;20225;-80
2021/01/29 05:16:57;;;;;;;11.20;7.20;;;-0.80;90.30;;;;;;4976427;28;20225;-80
2021/01/29 05:19:45;;;;;;;14.07;7.03;;;-0.80;90.30;;;;;;4974704;28;20544;-81
2021/01/29 05:22:37;;;;;;;10.83;7.20;;;-0.80;90.20;;;;;;4970617;28;20552;-83
2021/01/29 05:25:41;;;;;;;9.43;7.03;;;-0.70;90.10;;;;;;4969321;28;20357;-81
2021/01/29 05:28:38;;;;;;;10.63;6.53;;;-0.70;90.20;;;;;;4981447;28;20197;-80
2021/01/29 05:31:21;;;;;;;10.10;7.10;;;-0.80;90.20;;;;;;4977630;28;20572;-80
2021/01/29 05:33:58;;;;;;;9.60;6.53;;;-0.80;90.30;;;;;;4978111;28;20215;-79
2021/01/29 05:36:36;;;;;;;9.77;6.50;;;-0.80;90.30;;;;;;4978730;28;20207;-79
2021/01/29 05:39:15;;;;;;;9.90;6.60;;;-0.80;90.30;;;;;;4976577;28;20204;-81
2021/01/29 05:42:35;;;;;;;8.80;6.33;;;-0.80;90.20;;;;;;4977020;28;21148;-81
2021/01/29 05:45:14;;;;;;;9.67;6.50;;;-0.80;90.20;;;;;;4910571;29;20298;-81
2021/01/29 05:48:21;;;;;;;8.37;6.43;;;-0.80;90.40;;;;;;4906403;29;20266;-80
2021/01/29 05:51:22;;;;;;;8.40;5.93;;;-0.80;90.50;;;;;;4950121;28;20242;-82
2021/01/29 05:54:25;;;;;;;9.93;6.20;;;-0.80;90.40;;;;;;4974849;28;20232;-78
2021/01/29 05:57:17;;;;;;;10.90;6.53;;;-0.80;90.50;;;;;;4959945;28;20274;-78
2021/01/29 06:00:03;;;;;;;11.97;5.73;;;-0.80;90.50;;;;;;4971796;28;20219;-81
2021/01/29 06:02:51;;;;;;;7.57;5.43;;;-0.80;90.60;;;;;;4988245;28;20429;-81
2021/01/29 06:06:01;;;;;;;8.57;6.00;;;-0.80;90.30;;;;;;4963245;28;20209;-80
2021/01/29 06:08:59;;;;;;;7.87;5.40;;;-0.80;90.30;;;;;;4930082;28;20225;-80
2021/01/29 06:11:42;;;;;;;7.57;5.67;;;-0.70;90.20;;;;;;4967187;28;20610;-81
2021/01/29 06:14:48;;;;;;;7.57;5.27;;;-0.80;90.30;;;;;;4947385;28;20279;-82
2021/01/29 06:17:47;;;;;;;6.47;5.17;;;-0.70;90.40;;;;;;4972958;28;21111;-82
2021/01/29 06:20:44;;;;;;;8.00;5.83;;;-0.70;90.30;;;;;;4969614;28;20239;-79
2021/01/29 06:23:43;;;;;;;4.70;4.20;;;-0.70;90.30;;;;;;4962308;28;20204;-80
2021/01/29 06:26:27;;;;;;;5.70;5.07;;;-0.60;90.40;;;;;;4947274;28;20220;-81
2021/01/29 06:29:25;;;;;;;7.83;5.40;;;-0.60;90.40;;;;;;4974317;28;20845;-79
2021/01/29 06:32:38;;;;;;;7.63;5.70;;;-0.60;90.40;;;;;;4968931;28;20410;-80
2021/01/29 06:35:44;;;;;;;7.33;4.60;;;-0.60;90.50;;;;;;4970600;28;20625;-80
2021/01/29 06:38:48;;;;;;;6.60;4.77;;;-0.50;90.40;;;;;;4955461;28;20924;-81
2021/01/29 06:41:57;;;;;;;5.70;4.87;;;-0.50;90.30;;;;;;4971671;28;20213;-79
2021/01/29 06:44:49;;;;;;;6.50;5.10;;;-0.50;90.40;;;;;;4965713;28;20209;-80
2021/01/29 06:47:30;;;;;;;7.80;5.63;;;-0.60;90.40;;;;;;4930925;28;20328;-80
2021/01/29 06:50:24;;;;;;;6.67;5.23;;;-0.60;90.40;;;;;;4965814;28;20663;-79
2021/01/29 06:53:19;;;;;;;7.07;5.33;;;-0.50;90.50;;;;;;4965591;28;20264;-81
2021/01/29 06:56:22;;;;;;;6.93;5.13;;;-0.50;90.60;;;;;;4967159;28;20210;-80
2021/01/29 06:59:25;;;;;;;10.03;5.57;;;-0.50;90.60;;;;;;4976758;28;20203;-82
2021/01/29 07:02:14;;;;;;;9.23;5.80;;;-0.50;90.70;;;;;;4965057;28;20202;-81
2021/01/29 07:05:10;;;;;;;7.03;5.87;;;-0.50;90.60;;;;;;4969875;28;20454;-82
2021/01/29 07:07:51;;;;;;;8.17;5.80;;;-0.50;90.40;;;;;;4974123;28;20193;-81
2021/01/29 07:10:51;;;;;;;7.77;5.90;;;-0.50;90.40;;;;;;4965693;28;20267;-81
2021/01/29 07:13:37;;;;;;;9.17;6.10;;;-0.50;90.40;;;;;;4946223;28;21155;-81
2021/01/29 07:16:35;;;;;;;7.50;5.30;;;-0.50;90.30;;;;;;4962020;28;20200;-81
2021/01/29 07:19:24;;;;;;;8.63;6.20;;;-0.40;90.50;;;;;;4972114;28;20834;-80
2021/01/29 07:22:23;;;;;;;8.63;5.87;;;-0.40;90.30;;;;;;4968207;28;20212;-80
2021/01/29 07:25:05;;;;;;;9.80;6.73;;;-0.40;90.10;;;;;;4968731;28;20224;-87
2021/01/29 07:27:55;;;;;;;8.03;5.37;;;-0.40;90.10;;;;;;4973153;28;20205;-82
2021/01/29 07:31:09;;;;;;;6.37;5.63;;;-0.30;90.10;;;;;;4984891;28;21051;-82
2021/01/29 07:33:46;;;;;;;9.53;6.70;;;-0.40;89.70;;;;;;4961572;28;20210;-82
2021/01/29 07:36:48;;;;;;;9.80;5.87;;;-0.30;89.90;;;;;;4981026;28;20680;-80
2021/01/29 07:39:52;;;;;;;8.33;6.27;;;-0.30;89.80;;;;;;4977347;28;20209;-80
2021/01/29 07:42:45;;;;;;;9.47;6.07;;;-0.30;90.00;;;;;;4959888;28;20819;-80
2021/01/29 07:45:30;;;;;;;7.77;5.90;;;-0.30;89.70;;;;;;4976232;28;20754;-81
2021/01/29 07:48:27;;;;;;;7.50;5.73;;;-0.20;89.60;;;;;;4962717;28;20253;-82
2021/01/29 07:51:03;;;;;;;7.00;5.63;;;-0.20;89.40;;;;;;4965699;28;20301;-81
2021/01/29 07:53:37;;;;;;;8.03;5.93;;;-0.20;89.70;;;;;;4975551;28;20470;-82
2021/01/29 07:56:25;;;;;;;9.10;5.97;;;-0.10;89.00;;;;;;4973992;28;20201;-84
2021/01/29 07:59:05;;;;;;;8.23;5.73;;;0.00;89.40;;;;;;4972477;28;20363;-83
2021/01/29 08:01:48;;;;;;;8.93;5.90;;;0.00;88.80;;;;;;4973946;28;20194;-83
2021/01/29 08:04:31;;;;;;;8.07;5.50;;;0.10;88.50;;;;;;4968240;28;20206;-79
2021/01/29 08:07:13;;;;;;;7.73;5.83;;;0.10;88.50;;;;;;4982573;28;20229;-79
2021/01/29 08:09:47;;;;;;;8.90;5.97;;;0.10;88.10;;;;;;4969422;28;20864;-81
2021/01/29 08:12:23;;;;;;;8.73;5.77;;;0.10;88.30;;;;;;4973278;28;20198;-81
2021/01/29 08:15:19;;;;;;;8.13;5.67;;;0.20;87.90;;;;;;4984133;28;20207;-85
2021/01/29 08:18:00;;;;;;;7.57;6.20;;;0.20;87.90;;;;;;4988840;28;20221;-78
2021/01/29 08:20:38;;;;;;;10.00;6.07;;;0.10;88.50;;;;;;4978268;28;20195;-80
2021/01/29 08:23:21;;;;;;;8.20;6.23;;;0.10;88.10;;;;;;4981878;28;20190;-81
2021/01/29 08:26:27;;;;;;;9.87;6.50;;;0.10;88.60;;;;;;4982167;28;20350;-80
2021/01/29 08:29:38;;;;;;;9.80;6.37;;;0.10;87.90;;;;;;4985302;28;20202;-79
2021/01/29 08:32:36;;;;;;;11.90;6.87;;;0.20;88.50;;;;;;4999921;28;20210;-77
2021/01/29 08:35:30;;;;;;;11.07;6.30;;;0.20;88.30;;;;;;4969692;28;20206;-77
2021/01/29 08:38:03;;;;;;;11.17;6.40;;;0.20;88.40;;;;;;4981053;28;20268;-77
2021/01/29 08:40:35;;;;;;;9.57;6.80;;;0.20;88.50;;;;;;4983656;28;20198;-77
2021/01/29 08:43:30;;;;;;;12.60;6.83;;;0.20;88.60;;;;;;4992031;28;20289;-74
2021/01/29 08:46:10;;;;;;;7.97;6.30;;;0.20;88.50;;;;;;4969919;28;20541;-78
2021/01/29 08:49:10;;;;;;;7.37;6.30;;;0.30;88.70;;;;;;4966262;28;20226;-75
2021/01/29 08:51:46;;;;;;;9.93;6.67;;;0.30;87.70;;;;;;4971204;28;20199;-77
2021/01/29 08:54:46;;;;;;;8.83;6.40;;;0.30;88.20;;;;;;4982593;28;20202;-76
2021/01/29 08:57:29;;;;;;;8.23;6.60;;;0.40;87.80;;;;;;4976095;28;20282;-79
2021/01/29 08:59:59;;;;;;;8.87;6.47;;;0.50;87.60;;;;;;4960624;28;20216;-79
2021/01/29 09:02:54;;;;;;;8.73;6.37;;;0.50;87.80;;;;;;4965482;28;20241;-77
2021/01/29 09:05:25;;;;;;;9.47;6.13;;;0.40;87.40;;;;;;4957559;28;20210;-78
2021/01/29 09:07:59;;;;;;;7.87;6.40;;;0.40;87.30;;;;;;4956150;28;20280;-77
2021/01/29 09:10:40;;;;;;;8.17;6.00;;;0.40;87.50;;;;;;4963849;28;20231;-78
2021/01/29 09:13:14;;;;;;;8.27;6.13;;;0.30;87.40;;;;;;4960658;28;20353;-78
2021/01/29 09:15:50;;;;;;;8.57;6.70;;;0.40;87.60;;;;;;4960193;28;20207;-77
2021/01/29 09:18:26;;;;;;;8.03;6.33;;;0.30;88.00;;;;;;4957293;28;20666;-77
2021/01/29 09:21:07;;;;;;;10.10;6.63;;;0.30;87.80;;;;;;4959566;28;20217;-75
2021/01/29 09:23:41;;;;;;;8.53;6.50;;;0.40;87.60;;;;;;4955745;28;20210;-77
2021/01/29 09:26:18;;;;;;;8.23;6.50;;;0.40;87.40;;;;;;4955694;28;20207;-76
2021/01/29 09:28:54;;;;;;;7.93;6.17;;;0.50;87.50;;;;;;4963101;28;20219;-77
2021/01/29 09:31:27;;;;;;;10.23;7.40;;;0.50;87.00;;;;;;4954834;28;20227;-76
2021/01/29 09:34:01;;;;;;;8.40;6.60;;;0.40;87.60;;;;;;4959496;28;20276;-78
2021/01/29 09:36:34;;;;;;;9.93;7.30;;;0.50;87.70;;;;;;4957157;28;20277;-75
2021/01/29 09:39:09;;;;;;;8.77;7.33;;;0.40;87.40;;;;;;4970614;28;20716;-76
2021/01/29 09:41:45;;;;;;;10.43;7.43;;;0.50;87.00;;;;;;4964729;28;20219;-76
2021/01/29 09:44:24;;;;;;;9.70;7.53;;;0.50;87.20;;;;;;4963296;28;20310;-78
2021/01/29 09:46:56;;;;;;;9.00;7.20;;;0.50;87.00;;;;;;4972022;28;20286;-79
2021/01/29 09:49:26;;;;;;;9.10;6.53;;;0.50;86.80;;;;;;4978993;28;20235;-77
2021/01/29 09:52:06;;;;;;;9.70;7.00;;;0.50;87.00;;;;;;4930492;28;20262;-77
2021/01/29 09:54:53;;;;;;;9.23;7.43;;;0.50;87.10;;;;;;4956605;28;20199;-77
2021/01/29 09:57:25;;;;;;;9.30;7.17;;;0.50;87.00;;;;;;4950393;28;20204;-78
2021/01/29 10:00:02;;;;;;;9.70;7.50;;;0.60;87.50;;;;;;4943308;28;20590;-77
2021/01/29 10:02:37;;;;;;;9.80;7.83;;;0.60;87.00;;;;;;4940369;28;20257;-75
2021/01/29 10:05:15;;;;;;;8.60;7.53;;;0.60;86.50;;;;;;4953369;28;20203;-78
2021/01/29 10:08:05;;;;;;;9.07;7.10;;;0.60;86.80;;;;;;4950656;28;20192;-77
2021/01/29 10:10:45;;;;;;;11.00;7.60;;;0.60;87.00;;;;;;4955585;28;20347;-76
2021/01/29 10:13:21;;;;;;;11.03;7.50;;;0.60;86.70;;;;;;4960439;28;20211;-74
2021/01/29 10:16:11;;;;;;;9.57;7.67;;;0.60;86.30;;;;;;4964856;28;20286;-78
2021/01/29 10:18:40;;;;;;;11.00;8.27;;;0.60;86.40;;;;;;4955286;28;20338;-77
2021/01/29 10:21:14;;;;;;;8.93;7.30;;;0.60;86.30;;;;;;4962358;28;20208;-76
2021/01/29 10:23:50;;;;;;;13.70;8.63;;;0.50;86.50;;;;;;4958021;28;20482;-80
2021/01/29 10:26:26;;;;;;;11.47;8.20;;;0.50;86.50;;;;;;4969863;28;20196;-78
2021/01/29 10:29:17;;;;;;;10.60;7.37;;;0.50;86.50;;;;;;4973806;28;20195;-75
2021/01/29 10:32:01;;;;;;;12.67;8.20;;;0.40;86.80;;;;;;4960884;28;20207;-77
2021/01/29 10:34:37;;;;;;;10.90;8.43;;;0.40;86.60;;;;;;4962367;28;21181;-78
2021/01/29 10:37:14;;;;;;;13.10;8.40;;;0.30;87.00;;;;;;4956036;28;20436;-78
2021/01/29 10:40:12;;;;;;;10.30;8.03;;;0.40;87.10;;;;;;4958249;28;20211;-76
2021/01/29 10:42:50;;;;;;;12.07;9.83;;;0.40;87.60;;;;;;4960841;28;20290;-77
2021/01/29 10:45:38;;;;;;;12.77;9.17;;;0.40;87.50;;;;;;4959459;28;21074;-77
2021/01/29 10:48:16;;;;;;;14.77;8.73;;;0.40;87.40;;;;;;4956515;28;20195;-79
2021/01/29 10:50:54;;;;;;;11.63;8.33;;;0.40;87.40;;;;;;4961466;28;20528;-76
2021/01/29 10:53:24;;;;;;;12.53;7.97;;;0.40;86.40;;;;;;4958459;28;20207;-77
2021/01/29 10:55:57;;;;;;;11.10;7.90;;;0.30;86.60;;;;;;4954650;28;20202;-77
2021/01/29 10:58:46;;;;;;;13.13;8.60;;;0.20;86.70;;;;;;4970651;28;21056;-75
2021/01/29 11:01:35;;;;;;;11.33;8.13;;;0.30;87.10;;;;;;4954832;28;20215;-75
2021/01/29 11:04:08;;;;;;;12.00;8.47;;;0.30;86.80;;;;;;4964733;28;20257;-78
2021/01/29 11:06:42;;;;;;;12.50;8.00;;;0.30;86.30;;;;;;4960370;28;21013;-78
2021/01/29 11:09:21;;;;;;;11.13;8.40;;;0.40;86.50;;;;;;4965569;28;20229;-75
2021/01/29 11:11:59;;;;;;;11.10;8.43;;;0.30;86.70;;;;;;4973193;28;21112;-77
2021/01/29 11:14:32;;;;;;;11.90;8.80;;;0.50;87.10;;;;;;4973546;28;20211;-80
2021/01/29 11:17:07;;;;;;;11.90;8.70;;;0.40;86.10;;;;;;4977266;28;20727;-76
2021/01/29 11:19:41;;;;;;;11.67;8.30;;;0.40;86.20;;;;;;4970357;28;21084;-76
2021/01/29 11:22:18;;;;;;;12.93;9.13;;;0.40;86.60;;;;;;4984525;28;20215;-82
2021/01/29 11:25:28;;;;;;;13.10;9.07;;;0.40;86.50;;;;;;4984055;28;20206;-81
2021/01/29 11:28:03;;;;;;;11.70;8.90;;;0.40;86.40;;;;;;4965369;28;20203;-81
2021/01/29 11:30:35;;;;;;;11.97;8.63;;;0.50;86.40;;;;;;4980382;28;20343;-81
2021/01/29 11:33:06;;;;;;;12.23;9.40;;;0.50;86.40;;;;;;4964303;28;20231;-81
2021/01/29 11:35:44;;;;;;;11.90;9.30;;;0.50;86.40;;;;;;4977918;28;20642;-82
2021/01/29 11:38:36;;;;;;;12.50;9.40;;;0.50;86.00;;;;;;4976788;28;21204;-82
2021/01/29 11:41:20;;;;;;;13.33;9.40;;;0.60;86.30;;;;;;4977429;28;20208;-82
2021/01/29 11:43:56;;;;;;;13.00;9.13;;;0.50;86.30;;;;;;4981772;28;20226;-81
2021/01/29 11:46:27;;;;;;;16.27;9.87;;;0.50;86.90;;;;;;4981682;28;20410;-82
2021/01/29 11:49:07;;;;;;;11.67;9.97;;;0.50;86.80;;;;;;4982325;28;20192;-82
2021/01/29 11:51:39;;;;;;;12.67;9.70;;;0.70;86.50;;;;;;4970367;28;20224;-81
2021/01/29 11:54:17;;;;;;;12.73;9.70;;;0.50;87.10;;;;;;4943978;28;21079;-80
2021/01/29 11:56:55;;;;;;;11.70;9.13;;;0.40;86.80;;;;;;4956458;28;20211;-82
2021/01/29 11:59:31;;;;;;;13.07;9.53;;;0.50;87.00;;;;;;4968282;28;20204;-82
2021/01/29 12:02:06;;;;;;;12.50;9.50;;;0.50;86.70;;;;;;4963044;28;20196;-81
2021/01/29 12:04:41;;;;;;;13.37;9.53;;;0.60;86.20;;;;;;4960724;28;20240;-83
2021/01/29 12:07:16;;;;;;;10.83;8.70;;;0.60;86.10;;;;;;4966099;28;20257;-81
2021/01/29 12:09:52;;;;;;;13.43;9.63;;;0.60;86.20;;;;;;4976861;28;20250;-82
2021/01/29 12:12:30;;;;;;;12.77;9.73;;;0.80;86.50;;;;;;4979161;28;20206;-80
2021/01/29 12:15:09;;;;;;;14.07;9.90;;;0.60;86.10;;;;;;4970737;28;20998;-82
2021/01/29 12:17:42;;;;;;;13.67;10.20;;;0.70;86.30;;;;;;4973080;28;20468;-82
2021/01/29 12:20:29;;;;;;;14.53;9.70;;;0.70;86.70;;;;;;4965585;28;20204;-79
2021/01/29 12:23:12;;;;;;;14.20;9.87;;;0.80;85.90;;;;;;4953711;28;20463;-81
2021/01/29 12:26:05;;;;;;;11.37;8.83;;;0.80;85.70;;;;;;4963069;28;20255;-80
2021/01/29 12:28:53;;;;;;;11.07;8.63;;;0.60;85.80;;;;;;4965576;28;20216;-81
2021/01/29 12:31:31;;;;;;;11.80;9.30;;;0.70;86.00;;;;;;4975561;28;20231;-80
2021/01/29 12:34:05;;;;;;;16.50;9.90;;;0.70;86.30;;;;;;4966728;28;20212;-76
2021/01/29 12:36:36;;;;;;;12.10;9.70;;;0.70;86.40;;;;;;4969120;28;20273;-76
2021/01/29 12:39:12;;;;;;;13.83;8.93;;;0.70;86.30;;;;;;4973983;28;20204;-75
2021/01/29 12:41:48;;;;;;;12.63;9.40;;;0.70;85.60;;;;;;4981606;28;20228;-75
2021/01/29 12:44:35;;;;;;;11.20;8.87;;;0.60;85.40;;;;;;4966573;28;20202;-76
2021/01/29 12:47:18;;;;;;;14.60;9.07;;;0.60;86.10;;;;;;4962753;28;20188;-80
2021/01/29 12:49:55;;;;;;;13.63;9.87;;;0.60;86.30;;;;;;4959634;28;20227;-78
2021/01/29 12:52:27;;;;;;;10.53;9.03;;;0.60;86.40;;;;;;4960563;28;20207;-80
2021/01/29 12:55:02;;;;;;;11.17;9.33;;;0.60;86.50;;;;;;4962414;28;20200;-78
2021/01/29 12:57:32;;;;;;;12.50;9.53;;;0.50;87.00;;;;;;4960195;28;20295;-78
2021/01/29 13:00:10;;;;;;;15.47;10.33;;;0.50;87.00;;;;;;4966357;28;20200;-78
2021/01/29 13:02:55;;;;;;;18.00;9.07;;;0.50;86.60;;;;;;4958476;28;20346;-82
2021/01/29 13:05:38;;;;;;;12.77;8.77;;;0.50;86.70;;;;;;4961177;28;20208;-78
2021/01/29 13:08:37;;;;;;;12.37;8.63;;;0.40;86.00;;;;;;4965555;28;20245;-81
2021/01/29 13:11:19;;;;;;;11.43;8.10;;;0.40;86.70;;;;;;4950248;28;20235;-75
2021/01/29 13:13:54;;;;;;;12.03;9.00;;;0.40;86.10;;;;;;4967799;28;20218;-75
2021/01/29 13:16:26;;;;;;;13.80;9.13;;;0.40;86.50;;;;;;4960707;28;20538;-74
2021/01/29 13:19:03;;;;;;;11.67;8.90;;;0.40;87.20;;;;;;4965494;28;20211;-74
2021/01/29 13:21:49;;;;;;;13.43;9.30;;;0.50;86.20;;;;;;4957799;28;20207;-79
2021/01/29 13:24:21;;;;;;;11.97;8.77;;;0.40;86.30;;;;;;4958632;28;20196;-79
2021/01/29 13:26:50;;;;;;;13.53;9.53;;;0.50;86.60;;;;;;4962228;28;20793;-75
2021/01/29 13:29:21;;;;;;;11.77;9.17;;;0.60;86.70;;;;;;4962166;28;20705;-74
2021/01/29 13:31:49;;;;;;;14.37;10.20;;;0.60;86.50;;;;;;4964673;28;20234;-79
2021/01/29 13:34:21;;;;;;;13.17;10.37;;;0.70;86.10;;;;;;4960494;28;20205;-74
2021/01/29 13:37:01;;;;;;;11.67;8.97;;;0.70;86.30;;;;;;4967859;28;20563;-79
2021/01/29 13:39:31;;;;;;;12.63;9.50;;;0.70;86.20;;;;;;4958258;28;20197;-78
2021/01/29 13:42:12;;;;;;;11.23;9.63;;;0.70;85.90;;;;;;4971523;28;20235;-75
2021/01/29 13:44:43;;;;;;;14.67;9.90;;;0.70;85.70;;;;;;4959554;28;20200;-75
2021/01/29 13:47:20;;;;;;;15.23;10.67;;;0.70;85.90;;;;;;4965737;28;20637;-77
2021/01/29 13:49:48;;;;;;;16.00;9.60;;;0.80;86.30;;;;;;4960722;28;20200;-76
2021/01/29 13:52:28;;;;;;;14.47;10.13;;;0.80;85.80;;;;;;4961848;28;20724;-78